sensor_id;sensor_type;location;lat;lon;timestamp;P1;durP1;ratioP1;P2;durP2;ratioP2
58260;SDS011;44058;52.898;6.502;2022-08-04T00:01:03;10.10;;;3.97;;
58260;SDS011;44058;52.898;6.502;2022-08-04T00:03:39;9.05;;;3.78;;
58260;SDS011;44058;52.898;6.502;2022-08-04T00:06:11;6.45;;;4.13;;
58260;SDS011;44058;52.898;6.502;2022-08-04T00:08:48;7.45;;;4.50;;
58260;SDS011;44058;52.898;6.502;2022-08-04T00:11:20;5.43;;;4.20;;
58260;SDS011;44058;52.898;6.502;2022-08-04T00:13:52;7.35;;;4.18;;
58260;SDS011;44058;52.898;6.502;2022-08-04T00:16:22;6.95;;;3.80;;
58260;SDS011;44058;52.898;6.502;2022-08-04T00:19:00;6.35;;;4.00;;
58260;SDS011;44058;52.898;6.502;2022-08-04T00:21:30;7.40;;;4.07;;
58260;SDS011;44058;52.898;6.502;2022-08-04T00:24:01;8.35;;;4.20;;
58260;SDS011;44058;52.898;6.502;2022-08-04T00:26:27;8.75;;;4.22;;
58260;SDS011;44058;52.898;6.502;2022-08-04T00:28:53;9.02;;;3.97;;
58260;SDS011;44058;52.898;6.502;2022-08-04T00:31:20;6.20;;;3.83;;
58260;SDS011;44058;52.898;6.502;2022-08-04T00:33:47;6.18;;;3.60;;
58260;SDS011;44058;52.898;6.502;2022-08-04T00:36:13;6.15;;;3.47;;
58260;SDS011;44058;52.898;6.502;2022-08-04T00:38:41;6.63;;;3.47;;
58260;SDS011;44058;52.898;6.502;2022-08-04T00:41:12;5.18;;;3.28;;
58260;SDS011;44058;52.898;6.502;2022-08-04T00:57:49;8.57;;;3.40;;
58260;SDS011;44058;52.898;6.502;2022-08-04T01:00:28;9.68;;;3.67;;
58260;SDS011;44058;52.898;6.502;2022-08-04T01:03:07;11.20;;;3.60;;
58260;SDS011;44058;52.898;6.502;2022-08-04T01:08:40;6.18;;;4.28;;
58260;SDS011;44058;52.898;6.502;2022-08-04T01:16:51;7.88;;;4.10;;
58260;SDS011;44058;52.898;6.502;2022-08-04T01:19:30;7.28;;;4.40;;
58260;SDS011;44058;52.898;6.502;2022-08-04T01:31:13;7.53;;;4.72;;
58260;SDS011;44058;52.898;6.502;2022-08-04T01:33:52;8.45;;;4.55;;
58260;SDS011;44058;52.898;6.502;2022-08-04T01:36:24;7.50;;;4.47;;
58260;SDS011;44058;52.898;6.502;2022-08-04T01:38:50;6.63;;;4.82;;
58260;SDS011;44058;52.898;6.502;2022-08-04T01:41:18;7.57;;;4.73;;
58260;SDS011;44058;52.898;6.502;2022-08-04T01:43:44;5.35;;;3.70;;
58260;SDS011;44058;52.898;6.502;2022-08-04T01:46:11;6.18;;;4.00;;
58260;SDS011;44058;52.898;6.502;2022-08-04T01:48:39;7.30;;;4.40;;
58260;SDS011;44058;52.898;6.502;2022-08-04T01:51:08;7.78;;;4.03;;
58260;SDS011;44058;52.898;6.502;2022-08-04T01:53:35;7.35;;;3.75;;
58260;SDS011;44058;52.898;6.502;2022-08-04T01:56:03;8.23;;;3.80;;
58260;SDS011;44058;52.898;6.502;2022-08-04T02:00:59;8.05;;;4.05;;
58260;SDS011;44058;52.898;6.502;2022-08-04T02:03:29;7.43;;;4.22;;
58260;SDS011;44058;52.898;6.502;2022-08-04T02:06:10;8.05;;;4.30;;
58260;SDS011;44058;52.898;6.502;2022-08-04T02:11:15;7.65;;;4.55;;
58260;SDS011;44058;52.898;6.502;2022-08-04T02:21:26;7.05;;;3.92;;
58260;SDS011;44058;52.898;6.502;2022-08-04T02:23:56;7.05;;;4.00;;
58260;SDS011;44058;52.898;6.502;2022-08-04T02:26:33;10.18;;;3.92;;
58260;SDS011;44058;52.898;6.502;2022-08-04T02:31:42;6.63;;;4.07;;
58260;SDS011;44058;52.898;6.502;2022-08-04T02:36:52;8.52;;;4.30;;
58260;SDS011;44058;52.898;6.502;2022-08-04T02:39:19;6.75;;;4.50;;
58260;SDS011;44058;52.898;6.502;2022-08-04T02:41:47;5.38;;;3.47;;
58260;SDS011;44058;52.898;6.502;2022-08-04T02:44:14;7.40;;;3.80;;
58260;SDS011;44058;52.898;6.502;2022-08-04T02:46:45;5.70;;;4.55;;
58260;SDS011;44058;52.898;6.502;2022-08-04T02:49:12;7.35;;;5.00;;
58260;SDS011;44058;52.898;6.502;2022-08-04T02:51:40;10.23;;;4.93;;
58260;SDS011;44058;52.898;6.502;2022-08-04T02:54:09;6.65;;;4.78;;
58260;SDS011;44058;52.898;6.502;2022-08-04T02:56:35;4.70;;;4.15;;
58260;SDS011;44058;52.898;6.502;2022-08-04T02:59:08;7.18;;;4.78;;
58260;SDS011;44058;52.898;6.502;2022-08-04T03:01:35;9.82;;;5.10;;
58260;SDS011;44058;52.898;6.502;2022-08-04T03:04:11;7.13;;;4.78;;
58260;SDS011;44058;52.898;6.502;2022-08-04T03:14:53;6.60;;;4.75;;
58260;SDS011;44058;52.898;6.502;2022-08-04T03:23:57;7.45;;;5.00;;
58260;SDS011;44058;52.898;6.502;2022-08-04T03:52:00;8.52;;;5.10;;
58260;SDS011;44058;52.898;6.502;2022-08-04T04:05:26;7.70;;;4.13;;
58260;SDS011;44058;52.898;6.502;2022-08-04T04:17:51;6.68;;;4.30;;
58260;SDS011;44058;52.898;6.502;2022-08-04T04:30:43;7.70;;;3.60;;
58260;SDS011;44058;52.898;6.502;2022-08-04T04:33:36;9.52;;;4.45;;
58260;SDS011;44058;52.898;6.502;2022-08-04T04:42:00;6.13;;;4.90;;
58260;SDS011;44058;52.898;6.502;2022-08-04T04:48:23;6.30;;;4.70;;
58260;SDS011;44058;52.898;6.502;2022-08-04T04:51:05;7.97;;;4.82;;
58260;SDS011;44058;52.898;6.502;2022-08-04T04:56:36;7.55;;;5.18;;
58260;SDS011;44058;52.898;6.502;2022-08-04T04:59:10;7.97;;;5.43;;
58260;SDS011;44058;52.898;6.502;2022-08-04T05:11:52;14.05;;;6.25;;
58260;SDS011;44058;52.898;6.502;2022-08-04T05:14:42;13.85;;;6.43;;
58260;SDS011;44058;52.898;6.502;2022-08-04T05:17:22;10.20;;;5.75;;
58260;SDS011;44058;52.898;6.502;2022-08-04T05:19:56;9.32;;;6.55;;
58260;SDS011;44058;52.898;6.502;2022-08-04T05:22:28;9.90;;;6.00;;
58260;SDS011;44058;52.898;6.502;2022-08-04T05:25:02;10.32;;;5.93;;
58260;SDS011;44058;52.898;6.502;2022-08-04T05:27:36;8.85;;;6.20;;
58260;SDS011;44058;52.898;6.502;2022-08-04T05:30:07;8.70;;;5.85;;
58260;SDS011;44058;52.898;6.502;2022-08-04T05:33:09;7.93;;;5.60;;
58260;SDS011;44058;52.898;6.502;2022-08-04T05:35:31;7.40;;;5.80;;
58260;SDS011;44058;52.898;6.502;2022-08-04T05:38:01;8.27;;;6.05;;
58260;SDS011;44058;52.898;6.502;2022-08-04T05:40:28;9.38;;;6.82;;
58260;SDS011;44058;52.898;6.502;2022-08-04T05:42:54;13.32;;;7.25;;
58260;SDS011;44058;52.898;6.502;2022-08-04T05:45:21;13.77;;;7.40;;
58260;SDS011;44058;52.898;6.502;2022-08-04T05:47:48;12.68;;;7.40;;
58260;SDS011;44058;52.898;6.502;2022-08-04T05:52:42;11.98;;;7.40;;
58260;SDS011;44058;52.898;6.502;2022-08-04T05:55:08;9.98;;;7.93;;
58260;SDS011;44058;52.898;6.502;2022-08-04T05:57:38;12.30;;;7.60;;
58260;SDS011;44058;52.898;6.502;2022-08-04T06:00:05;11.50;;;7.10;;
58260;SDS011;44058;52.898;6.502;2022-08-04T06:02:33;10.60;;;7.70;;
58260;SDS011;44058;52.898;6.502;2022-08-04T06:05:00;7.88;;;6.68;;
58260;SDS011;44058;52.898;6.502;2022-08-04T06:07:27;13.85;;;6.82;;
58260;SDS011;44058;52.898;6.502;2022-08-04T06:09:53;9.57;;;7.07;;
58260;SDS011;44058;52.898;6.502;2022-08-04T06:12:24;12.63;;;7.65;;
58260;SDS011;44058;52.898;6.502;2022-08-04T06:15:00;13.95;;;7.30;;
58260;SDS011;44058;52.898;6.502;2022-08-04T06:17:31;14.10;;;8.25;;
58260;SDS011;44058;52.898;6.502;2022-08-04T06:20:02;9.75;;;7.28;;
58260;SDS011;44058;52.898;6.502;2022-08-04T06:22:29;10.55;;;8.23;;
58260;SDS011;44058;52.898;6.502;2022-08-04T06:24:58;11.80;;;8.15;;
58260;SDS011;44058;52.898;6.502;2022-08-04T06:27:25;12.60;;;7.13;;
58260;SDS011;44058;52.898;6.502;2022-08-04T06:29:56;14.13;;;8.07;;
58260;SDS011;44058;52.898;6.502;2022-08-04T06:32:30;11.57;;;7.53;;
58260;SDS011;44058;52.898;6.502;2022-08-04T06:35:02;10.80;;;7.40;;
58260;SDS011;44058;52.898;6.502;2022-08-04T06:37:29;10.60;;;6.85;;
58260;SDS011;44058;52.898;6.502;2022-08-04T06:39:56;10.40;;;6.87;;
58260;SDS011;44058;52.898;6.502;2022-08-04T06:42:24;10.52;;;7.30;;
58260;SDS011;44058;52.898;6.502;2022-08-04T06:44:53;11.93;;;6.73;;
58260;SDS011;44058;52.898;6.502;2022-08-04T06:47:22;11.82;;;6.53;;
58260;SDS011;44058;52.898;6.502;2022-08-04T06:49:49;10.93;;;6.45;;
58260;SDS011;44058;52.898;6.502;2022-08-04T06:54:44;7.85;;;5.13;;
58260;SDS011;44058;52.898;6.502;2022-08-04T06:57:12;8.45;;;5.93;;
58260;SDS011;44058;52.898;6.502;2022-08-04T06:59:43;7.65;;;5.18;;
58260;SDS011;44058;52.898;6.502;2022-08-04T07:02:13;10.20;;;6.20;;
58260;SDS011;44058;52.898;6.502;2022-08-04T07:04:42;10.10;;;5.25;;
58260;SDS011;44058;52.898;6.502;2022-08-04T07:07:15;10.05;;;6.07;;
58260;SDS011;44058;52.898;6.502;2022-08-04T07:09:54;10.68;;;5.57;;
58260;SDS011;44058;52.898;6.502;2022-08-04T07:12:21;7.68;;;5.10;;
58260;SDS011;44058;52.898;6.502;2022-08-04T07:14:53;9.05;;;5.93;;
58260;SDS011;44058;52.898;6.502;2022-08-04T07:17:20;9.23;;;5.57;;
58260;SDS011;44058;52.898;6.502;2022-08-04T07:19:47;10.55;;;5.90;;
58260;SDS011;44058;52.898;6.502;2022-08-04T07:22:14;9.23;;;5.47;;
58260;SDS011;44058;52.898;6.502;2022-08-04T07:24:40;9.02;;;5.13;;
58260;SDS011;44058;52.898;6.502;2022-08-04T07:27:06;6.57;;;4.97;;
58260;SDS011;44058;52.898;6.502;2022-08-04T07:29:33;8.35;;;4.80;;
58260;SDS011;44058;52.898;6.502;2022-08-04T07:32:00;6.93;;;4.05;;
58260;SDS011;44058;52.898;6.502;2022-08-04T07:34:27;7.57;;;4.15;;
58260;SDS011;44058;52.898;6.502;2022-08-04T07:36:54;6.15;;;3.90;;
58260;SDS011;44058;52.898;6.502;2022-08-04T07:39:22;10.45;;;4.43;;
58260;SDS011;44058;52.898;6.502;2022-08-04T07:41:49;10.75;;;3.38;;
58260;SDS011;44058;52.898;6.502;2022-08-04T07:44:16;10.23;;;3.70;;
58260;SDS011;44058;52.898;6.502;2022-08-04T07:46:44;7.47;;;3.60;;
58260;SDS011;44058;52.898;6.502;2022-08-04T07:49:10;8.32;;;3.60;;
58260;SDS011;44058;52.898;6.502;2022-08-04T07:51:36;7.95;;;4.03;;
58260;SDS011;44058;52.898;6.502;2022-08-04T07:54:03;8.82;;;3.47;;
58260;SDS011;44058;52.898;6.502;2022-08-04T07:56:32;8.30;;;3.90;;
58260;SDS011;44058;52.898;6.502;2022-08-04T07:58:59;8.80;;;3.33;;
58260;SDS011;44058;52.898;6.502;2022-08-04T08:01:25;7.47;;;3.35;;
58260;SDS011;44058;52.898;6.502;2022-08-04T08:03:52;8.07;;;3.53;;
58260;SDS011;44058;52.898;6.502;2022-08-04T08:06:20;11.07;;;3.47;;
58260;SDS011;44058;52.898;6.502;2022-08-04T08:08:46;7.90;;;3.72;;
58260;SDS011;44058;52.898;6.502;2022-08-04T08:11:12;10.80;;;3.15;;
58260;SDS011;44058;52.898;6.502;2022-08-04T08:13:38;7.18;;;3.10;;
58260;SDS011;44058;52.898;6.502;2022-08-04T08:16:04;8.15;;;3.47;;
58260;SDS011;44058;52.898;6.502;2022-08-04T08:18:30;9.43;;;3.53;;
58260;SDS011;44058;52.898;6.502;2022-08-04T08:20:57;8.23;;;3.03;;
58260;SDS011;44058;52.898;6.502;2022-08-04T08:23:23;6.32;;;3.40;;
58260;SDS011;44058;52.898;6.502;2022-08-04T08:25:50;8.13;;;3.13;;
58260;SDS011;44058;52.898;6.502;2022-08-04T08:28:16;8.32;;;3.58;;
58260;SDS011;44058;52.898;6.502;2022-08-04T08:30:42;9.35;;;2.67;;
58260;SDS011;44058;52.898;6.502;2022-08-04T08:33:11;7.00;;;3.08;;
58260;SDS011;44058;52.898;6.502;2022-08-04T08:36:00;7.68;;;3.47;;
58260;SDS011;44058;52.898;6.502;2022-08-04T09:07:30;8.90;;;3.75;;
58260;SDS011;44058;52.898;6.502;2022-08-04T09:12:50;11.25;;;3.92;;
58260;SDS011;44058;52.898;6.502;2022-08-04T09:18:12;4.13;;;3.10;;
58260;SDS011;44058;52.898;6.502;2022-08-04T09:20:46;9.00;;;4.05;;
58260;SDS011;44058;52.898;6.502;2022-08-04T09:23:32;9.93;;;3.90;;
58260;SDS011;44058;52.898;6.502;2022-08-04T09:26:10;7.05;;;3.35;;
58260;SDS011;44058;52.898;6.502;2022-08-04T09:31:38;6.95;;;4.28;;
58260;SDS011;44058;52.898;6.502;2022-08-04T09:34:36;6.85;;;3.85;;
58260;SDS011;44058;52.898;6.502;2022-08-04T09:40:06;7.90;;;3.97;;
58260;SDS011;44058;52.898;6.502;2022-08-04T09:45:49;6.18;;;3.75;;
58260;SDS011;44058;52.898;6.502;2022-08-04T09:51:30;6.20;;;3.45;;
58260;SDS011;44058;52.898;6.502;2022-08-04T09:57:34;9.05;;;4.25;;
58260;SDS011;44058;52.898;6.502;2022-08-04T10:00:04;7.00;;;3.55;;
58260;SDS011;44058;52.898;6.502;2022-08-04T10:02:37;5.75;;;3.53;;
58260;SDS011;44058;52.898;6.502;2022-08-04T10:05:20;6.72;;;3.45;;
58260;SDS011;44058;52.898;6.502;2022-08-04T10:08:14;7.82;;;3.45;;
58260;SDS011;44058;52.898;6.502;2022-08-04T10:10:37;6.20;;;3.30;;
58260;SDS011;44058;52.898;6.502;2022-08-04T10:27:06;6.00;;;3.10;;
58260;SDS011;44058;52.898;6.502;2022-08-04T10:29:53;7.38;;;3.05;;
58260;SDS011;44058;52.898;6.502;2022-08-04T10:32:49;4.78;;;2.90;;
58260;SDS011;44058;52.898;6.502;2022-08-04T10:35:25;5.05;;;2.92;;
58260;SDS011;44058;52.898;6.502;2022-08-04T10:40:30;6.20;;;2.55;;
58260;SDS011;44058;52.898;6.502;2022-08-04T10:43:27;3.45;;;2.10;;
58260;SDS011;44058;52.898;6.502;2022-08-04T10:48:53;7.65;;;2.05;;
58260;SDS011;44058;52.898;6.502;2022-08-04T10:51:24;8.45;;;1.90;;
58260;SDS011;44058;52.898;6.502;2022-08-04T10:57:07;4.78;;;1.80;;
58260;SDS011;44058;52.898;6.502;2022-08-04T10:59:40;7.90;;;2.00;;
58260;SDS011;44058;52.898;6.502;2022-08-04T11:05:04;8.32;;;2.20;;
58260;SDS011;44058;52.898;6.502;2022-08-04T11:07:36;5.25;;;1.67;;
58260;SDS011;44058;52.898;6.502;2022-08-04T11:12:30;8.27;;;2.13;;
58260;SDS011;44058;52.898;6.502;2022-08-04T11:15:02;6.45;;;2.17;;
58260;SDS011;44058;52.898;6.502;2022-08-04T11:18:07;7.57;;;2.47;;
58260;SDS011;44058;52.898;6.502;2022-08-04T11:23:05;7.07;;;1.98;;
58260;SDS011;44058;52.898;6.502;2022-08-04T11:26:20;6.93;;;2.47;;
58260;SDS011;44058;52.898;6.502;2022-08-04T11:31:18;6.28;;;1.88;;
58260;SDS011;44058;52.898;6.502;2022-08-04T11:33:55;1.88;;;1.40;;
58260;SDS011;44058;52.898;6.502;2022-08-04T11:36:45;4.10;;;1.60;;
58260;SDS011;44058;52.898;6.502;2022-08-04T11:39:57;4.90;;;1.63;;
58260;SDS011;44058;52.898;6.502;2022-08-04T11:47:46;3.80;;;1.60;;
58260;SDS011;44058;52.898;6.502;2022-08-04T11:53:06;2.88;;;1.80;;
58260;SDS011;44058;52.898;6.502;2022-08-04T11:55:33;6.70;;;1.35;;
58260;SDS011;44058;52.898;6.502;2022-08-04T12:00:27;2.65;;;1.50;;
58260;SDS011;44058;52.898;6.502;2022-08-04T12:05:30;3.72;;;1.33;;
58260;SDS011;44058;52.898;6.502;2022-08-04T12:08:02;2.65;;;1.27;;
58260;SDS011;44058;52.898;6.502;2022-08-04T12:18:44;3.63;;;1.33;;
58260;SDS011;44058;52.898;6.502;2022-08-04T12:21:30;3.50;;;1.65;;
58260;SDS011;44058;52.898;6.502;2022-08-04T12:24:04;6.07;;;2.10;;
58260;SDS011;44058;52.898;6.502;2022-08-04T12:26:39;4.20;;;1.88;;
58260;SDS011;44058;52.898;6.502;2022-08-04T12:29:09;2.92;;;1.48;;
58260;SDS011;44058;52.898;6.502;2022-08-04T12:31:40;4.63;;;1.65;;
58260;SDS011;44058;52.898;6.502;2022-08-04T12:37:04;2.65;;;1.50;;
58260;SDS011;44058;52.898;6.502;2022-08-04T12:39:51;1.75;;;1.40;;
58260;SDS011;44058;52.898;6.502;2022-08-04T12:44:48;1.98;;;1.20;;
58260;SDS011;44058;52.898;6.502;2022-08-04T12:47:22;2.92;;;1.40;;
58260;SDS011;44058;52.898;6.502;2022-08-04T12:49:51;3.30;;;1.70;;
58260;SDS011;44058;52.898;6.502;2022-08-04T12:52:18;3.95;;;1.60;;
58260;SDS011;44058;52.898;6.502;2022-08-04T12:54:46;3.28;;;1.40;;
58260;SDS011;44058;52.898;6.502;2022-08-04T12:57:17;2.85;;;1.30;;
58260;SDS011;44058;52.898;6.502;2022-08-04T12:59:45;2.53;;;1.33;;
58260;SDS011;44058;52.898;6.502;2022-08-04T13:02:16;2.75;;;1.38;;
58260;SDS011;44058;52.898;6.502;2022-08-04T13:04:48;1.88;;;1.25;;
58260;SDS011;44058;52.898;6.502;2022-08-04T13:07:17;1.67;;;1.27;;
58260;SDS011;44058;52.898;6.502;2022-08-04T13:09:45;2.30;;;1.27;;
58260;SDS011;44058;52.898;6.502;2022-08-04T13:12:30;1.92;;;1.40;;
58260;SDS011;44058;52.898;6.502;2022-08-04T13:14:57;3.00;;;1.27;;
58260;SDS011;44058;52.898;6.502;2022-08-04T13:18:18;2.85;;;1.50;;
58260;SDS011;44058;52.898;6.502;2022-08-04T13:20:35;1.90;;;1.13;;
58260;SDS011;44058;52.898;6.502;2022-08-04T13:23:05;2.47;;;1.10;;
58260;SDS011;44058;52.898;6.502;2022-08-04T13:25:33;1.92;;;1.05;;
58260;SDS011;44058;52.898;6.502;2022-08-04T13:28:04;2.47;;;1.13;;
58260;SDS011;44058;52.898;6.502;2022-08-04T13:30:32;1.73;;;1.20;;
58260;SDS011;44058;52.898;6.502;2022-08-04T13:33:01;1.23;;;1.10;;
58260;SDS011;44058;52.898;6.502;2022-08-04T13:35:28;2.38;;;1.38;;
58260;SDS011;44058;52.898;6.502;2022-08-04T13:37:56;3.83;;;1.35;;
58260;SDS011;44058;52.898;6.502;2022-08-04T13:40:25;2.25;;;1.17;;
58260;SDS011;44058;52.898;6.502;2022-08-04T13:42:52;1.80;;;1.20;;
58260;SDS011;44058;52.898;6.502;2022-08-04T13:45:21;1.95;;;1.10;;
58260;SDS011;44058;52.898;6.502;2022-08-04T13:47:49;2.78;;;1.25;;
58260;SDS011;44058;52.898;6.502;2022-08-04T13:50:24;1.92;;;1.00;;
58260;SDS011;44058;52.898;6.502;2022-08-04T13:52:53;4.60;;;1.73;;
58260;SDS011;44058;52.898;6.502;2022-08-04T13:55:26;3.65;;;1.40;;
58260;SDS011;44058;52.898;6.502;2022-08-04T13:58:18;3.42;;;1.50;;
58260;SDS011;44058;52.898;6.502;2022-08-04T14:00:52;1.77;;;1.30;;
58260;SDS011;44058;52.898;6.502;2022-08-04T14:06:15;1.30;;;1.00;;
58260;SDS011;44058;52.898;6.502;2022-08-04T14:11:18;2.38;;;1.35;;
58260;SDS011;44058;52.898;6.502;2022-08-04T14:19:48;2.97;;;1.23;;
58260;SDS011;44058;52.898;6.502;2022-08-04T14:25:07;2.17;;;1.30;;
58260;SDS011;44058;52.898;6.502;2022-08-04T14:27:47;3.10;;;1.27;;
58260;SDS011;44058;52.898;6.502;2022-08-04T14:32:55;4.53;;;1.17;;
58260;SDS011;44058;52.898;6.502;2022-08-04T14:35:21;2.42;;;1.20;;
58260;SDS011;44058;52.898;6.502;2022-08-04T14:38:21;2.40;;;1.20;;
58260;SDS011;44058;52.898;6.502;2022-08-04T14:40:40;1.80;;;1.13;;
58260;SDS011;44058;52.898;6.502;2022-08-04T14:43:07;2.58;;;0.93;;
58260;SDS011;44058;52.898;6.502;2022-08-04T14:45:41;2.00;;;1.33;;
58260;SDS011;44058;52.898;6.502;2022-08-04T14:50:44;2.63;;;1.30;;
58260;SDS011;44058;52.898;6.502;2022-08-04T14:53:13;3.15;;;1.38;;
58260;SDS011;44058;52.898;6.502;2022-08-04T14:55:44;2.08;;;1.10;;
58260;SDS011;44058;52.898;6.502;2022-08-04T15:00:51;2.75;;;1.15;;
58260;SDS011;44058;52.898;6.502;2022-08-04T15:03:19;2.40;;;1.20;;
58260;SDS011;44058;52.898;6.502;2022-08-04T15:05:49;3.38;;;1.20;;
58260;SDS011;44058;52.898;6.502;2022-08-04T15:08:24;8.27;;;1.60;;
58260;SDS011;44058;52.898;6.502;2022-08-04T15:13:22;2.53;;;1.00;;
58260;SDS011;44058;52.898;6.502;2022-08-04T15:15:48;1.88;;;1.17;;
58260;SDS011;44058;52.898;6.502;2022-08-04T15:18:15;1.92;;;1.00;;
58260;SDS011;44058;52.898;6.502;2022-08-04T15:20:41;2.60;;;1.02;;
58260;SDS011;44058;52.898;6.502;2022-08-04T15:23:07;1.88;;;1.20;;
58260;SDS011;44058;52.898;6.502;2022-08-04T15:25:37;1.52;;;1.08;;
58260;SDS011;44058;52.898;6.502;2022-08-04T15:28:07;2.22;;;0.95;;
58260;SDS011;44058;52.898;6.502;2022-08-04T15:30:37;3.80;;;1.50;;
58260;SDS011;44058;52.898;6.502;2022-08-04T15:33:04;2.10;;;1.05;;
58260;SDS011;44058;52.898;6.502;2022-08-04T15:35:31;3.38;;;1.15;;
58260;SDS011;44058;52.898;6.502;2022-08-04T15:40:28;2.45;;;1.02;;
58260;SDS011;44058;52.898;6.502;2022-08-04T15:45:27;2.22;;;1.10;;
58260;SDS011;44058;52.898;6.502;2022-08-04T15:53:22;2.40;;;1.10;;
58260;SDS011;44058;52.898;6.502;2022-08-04T15:58:52;2.88;;;1.20;;
58260;SDS011;44058;52.898;6.502;2022-08-04T16:01:22;3.17;;;1.48;;
58260;SDS011;44058;52.898;6.502;2022-08-04T16:03:51;4.18;;;1.00;;
58260;SDS011;44058;52.898;6.502;2022-08-04T16:11:45;4.05;;;1.40;;
58260;SDS011;44058;52.898;6.502;2022-08-04T16:14:07;3.25;;;1.90;;
58260;SDS011;44058;52.898;6.502;2022-08-04T16:19:03;4.05;;;1.60;;
58260;SDS011;44058;52.898;6.502;2022-08-04T16:21:33;4.03;;;1.92;;
58260;SDS011;44058;52.898;6.502;2022-08-04T16:24:15;4.45;;;1.70;;
58260;SDS011;44058;52.898;6.502;2022-08-04T16:34:31;3.38;;;1.50;;
58260;SDS011;44058;52.898;6.502;2022-08-04T16:36:58;3.88;;;1.42;;
58260;SDS011;44058;52.898;6.502;2022-08-04T16:39:26;4.10;;;1.58;;
58260;SDS011;44058;52.898;6.502;2022-08-04T16:41:52;4.60;;;1.80;;
58260;SDS011;44058;52.898;6.502;2022-08-04T16:44:31;6.18;;;1.85;;
58260;SDS011;44058;52.898;6.502;2022-08-04T16:46:58;6.65;;;1.90;;
58260;SDS011;44058;52.898;6.502;2022-08-04T16:49:26;4.95;;;1.98;;
58260;SDS011;44058;52.898;6.502;2022-08-04T16:51:52;4.95;;;1.70;;
58260;SDS011;44058;52.898;6.502;2022-08-04T16:54:20;2.75;;;1.40;;
58260;SDS011;44058;52.898;6.502;2022-08-04T16:56:46;2.63;;;1.30;;
58260;SDS011;44058;52.898;6.502;2022-08-04T16:59:12;1.73;;;0.90;;
58260;SDS011;44058;52.898;6.502;2022-08-04T17:01:48;1.58;;;1.10;;
58260;SDS011;44058;52.898;6.502;2022-08-04T17:04:32;1.85;;;0.80;;
58260;SDS011;44058;52.898;6.502;2022-08-04T17:07:00;1.98;;;1.00;;
58260;SDS011;44058;52.898;6.502;2022-08-04T17:09:27;4.18;;;0.90;;
58260;SDS011;44058;52.898;6.502;2022-08-04T17:11:53;1.88;;;0.82;;
58260;SDS011;44058;52.898;6.502;2022-08-04T17:14:23;1.40;;;1.00;;
58260;SDS011;44058;52.898;6.502;2022-08-04T17:16:51;2.22;;;1.25;;
58260;SDS011;44058;52.898;6.502;2022-08-04T17:19:20;1.40;;;1.00;;
58260;SDS011;44058;52.898;6.502;2022-08-04T17:24:11;2.35;;;1.10;;
58260;SDS011;44058;52.898;6.502;2022-08-04T17:26:38;2.13;;;1.30;;
58260;SDS011;44058;52.898;6.502;2022-08-04T17:29:05;1.45;;;1.00;;
58260;SDS011;44058;52.898;6.502;2022-08-04T17:31:31;2.40;;;1.30;;
58260;SDS011;44058;52.898;6.502;2022-08-04T17:33:59;1.80;;;1.08;;
58260;SDS011;44058;52.898;6.502;2022-08-04T17:36:35;3.85;;;1.30;;
58260;SDS011;44058;52.898;6.502;2022-08-04T17:39:03;1.40;;;1.10;;
58260;SDS011;44058;52.898;6.502;2022-08-04T17:41:39;1.45;;;1.00;;
58260;SDS011;44058;52.898;6.502;2022-08-04T17:44:05;1.55;;;1.10;;
58260;SDS011;44058;52.898;6.502;2022-08-04T17:51:41;2.20;;;1.10;;
58260;SDS011;44058;52.898;6.502;2022-08-04T17:54:11;2.15;;;1.20;;
58260;SDS011;44058;52.898;6.502;2022-08-04T17:59:29;1.60;;;0.90;;
58260;SDS011;44058;52.898;6.502;2022-08-04T18:02:08;1.23;;;0.90;;
58260;SDS011;44058;52.898;6.502;2022-08-04T18:07:13;1.13;;;0.90;;
58260;SDS011;44058;52.898;6.502;2022-08-04T18:09:40;2.15;;;1.13;;
58260;SDS011;44058;52.898;6.502;2022-08-04T18:12:20;2.10;;;1.17;;
58260;SDS011;44058;52.898;6.502;2022-08-04T18:14:58;3.88;;;1.13;;
58260;SDS011;44058;52.898;6.502;2022-08-04T18:17:36;2.50;;;1.33;;
58260;SDS011;44058;52.898;6.502;2022-08-04T18:20:12;2.15;;;1.15;;
58260;SDS011;44058;52.898;6.502;2022-08-04T18:22:43;2.28;;;1.13;;
58260;SDS011;44058;52.898;6.502;2022-08-04T18:25:13;2.70;;;1.17;;
58260;SDS011;44058;52.898;6.502;2022-08-04T18:27:47;3.35;;;1.38;;
58260;SDS011;44058;52.898;6.502;2022-08-04T18:30:18;3.88;;;1.30;;
58260;SDS011;44058;52.898;6.502;2022-08-04T18:32:45;3.65;;;1.35;;
58260;SDS011;44058;52.898;6.502;2022-08-04T18:35:11;3.97;;;1.20;;
58260;SDS011;44058;52.898;6.502;2022-08-04T18:37:37;3.50;;;1.20;;
58260;SDS011;44058;52.898;6.502;2022-08-04T18:40:07;3.70;;;1.50;;
58260;SDS011;44058;52.898;6.502;2022-08-04T18:42:34;3.15;;;1.40;;
58260;SDS011;44058;52.898;6.502;2022-08-04T18:45:00;3.13;;;1.30;;
58260;SDS011;44058;52.898;6.502;2022-08-04T18:47:30;2.75;;;1.35;;
58260;SDS011;44058;52.898;6.502;2022-08-04T18:49:56;5.50;;;1.30;;
58260;SDS011;44058;52.898;6.502;2022-08-04T18:52:25;4.40;;;1.15;;
58260;SDS011;44058;52.898;6.502;2022-08-04T18:54:51;4.25;;;1.50;;
58260;SDS011;44058;52.898;6.502;2022-08-04T18:57:20;2.72;;;1.30;;
58260;SDS011;44058;52.898;6.502;2022-08-04T18:59:47;3.58;;;1.40;;
58260;SDS011;44058;52.898;6.502;2022-08-04T19:02:13;2.75;;;1.25;;
58260;SDS011;44058;52.898;6.502;2022-08-04T19:04:39;3.53;;;1.30;;
58260;SDS011;44058;52.898;6.502;2022-08-04T19:07:08;3.10;;;1.20;;
58260;SDS011;44058;52.898;6.502;2022-08-04T19:09:38;2.95;;;1.33;;
58260;SDS011;44058;52.898;6.502;2022-08-04T19:12:05;1.27;;;0.98;;
58260;SDS011;44058;52.898;6.502;2022-08-04T19:14:33;3.67;;;1.50;;
58260;SDS011;44058;52.898;6.502;2022-08-04T19:19:24;3.05;;;1.50;;
58260;SDS011;44058;52.898;6.502;2022-08-04T19:21:50;3.80;;;1.65;;
58260;SDS011;44058;52.898;6.502;2022-08-04T19:24:16;2.67;;;1.40;;
58260;SDS011;44058;52.898;6.502;2022-08-04T19:26:42;2.92;;;1.23;;
58260;SDS011;44058;52.898;6.502;2022-08-04T19:29:08;3.08;;;1.67;;
58260;SDS011;44058;52.898;6.502;2022-08-04T19:31:33;3.65;;;1.40;;
58260;SDS011;44058;52.898;6.502;2022-08-04T19:33:59;2.70;;;1.25;;
58260;SDS011;44058;52.898;6.502;2022-08-04T19:36:26;4.15;;;1.90;;
58260;SDS011;44058;52.898;6.502;2022-08-04T19:38:53;4.43;;;1.80;;
58260;SDS011;44058;52.898;6.502;2022-08-04T19:41:23;3.38;;;1.90;;
58260;SDS011;44058;52.898;6.502;2022-08-04T19:43:48;4.43;;;1.85;;
58260;SDS011;44058;52.898;6.502;2022-08-04T19:46:14;3.75;;;1.70;;
58260;SDS011;44058;52.898;6.502;2022-08-04T19:48:41;5.45;;;1.80;;
58260;SDS011;44058;52.898;6.502;2022-08-04T19:51:08;3.95;;;1.95;;
58260;SDS011;44058;52.898;6.502;2022-08-04T19:53:38;5.28;;;2.08;;
58260;SDS011;44058;52.898;6.502;2022-08-04T19:56:06;5.20;;;2.20;;
58260;SDS011;44058;52.898;6.502;2022-08-04T19:58:31;4.80;;;1.90;;
58260;SDS011;44058;52.898;6.502;2022-08-04T20:00:57;4.05;;;1.77;;
58260;SDS011;44058;52.898;6.502;2022-08-04T20:03:23;4.25;;;1.80;;
58260;SDS011;44058;52.898;6.502;2022-08-04T20:05:48;5.82;;;1.98;;
58260;SDS011;44058;52.898;6.502;2022-08-04T20:08:14;5.10;;;2.20;;
58260;SDS011;44058;52.898;6.502;2022-08-04T20:10:40;5.20;;;2.10;;
58260;SDS011;44058;52.898;6.502;2022-08-04T20:13:06;3.65;;;1.92;;
58260;SDS011;44058;52.898;6.502;2022-08-04T20:15:31;6.18;;;2.40;;
58260;SDS011;44058;52.898;6.502;2022-08-04T20:17:57;4.30;;;2.00;;
58260;SDS011;44058;52.898;6.502;2022-08-04T20:20:23;5.03;;;2.10;;
58260;SDS011;44058;52.898;6.502;2022-08-04T20:22:49;5.28;;;1.90;;
58260;SDS011;44058;52.898;6.502;2022-08-04T20:25:14;7.75;;;2.63;;
58260;SDS011;44058;52.898;6.502;2022-08-04T20:27:41;8.10;;;2.08;;
58260;SDS011;44058;52.898;6.502;2022-08-04T20:30:08;4.82;;;1.90;;
58260;SDS011;44058;52.898;6.502;2022-08-04T20:32:34;4.78;;;1.85;;
58260;SDS011;44058;52.898;6.502;2022-08-04T20:35:00;6.03;;;1.70;;